首页
METAR-TAF:

METAR-TAF

机场 :

代托纳比奇, 佛罗里达州, 美国

纬度: 29-10-38N, 经度: 081-03-36W, 海拔: 10米

当前天气观测

该预报发布于1小时和10分钟前的04:53 UTC
风速3节,风向西转西北
温度 10°C
湿度 93%
气压 1026 hPa
能見度: 16.1公里
少量云层高于5000英尺

METAR: KDAB 230453Z 29003KT 10SM FEW050 10/09 A3029 RMK AO2 SLP256 T01000094 401780100

时间: 01:03 (06:03 UTC)

预报

该预报发布于29分钟前的05:34 UTC
预报有效从23日的 06点(UTC)到 24日的 06点(UTC)
风速4节,风向多变
能見度: 10公里
散云层高于5000英尺
从 23日的 1500点(UTC)
风速8节,风向东转东北
能見度: 10公里
散云层高于3500英尺
散云层高于25000英尺
从 24日的 0000点(UTC)
风速3节,风向多变
能見度: 10公里
少量云层高于3500英尺
散云层高于25000英尺

TAF: KDAB 230534Z 2306/2406 VRB04KT P6SM SCT050 FM231500 06008KT P6SM SCT035 SCT250 FM240000 VRB03KT P6SM FEW035 SCT250

超过4000个机场的气象观测和天气预报(METAR&TAF报告)。

可查询的气象台以黄色和红色小点在地图上表示。

将鼠标移到小点上方,可查看气象台名称。

然后点击查看天气观测和预报。

如需切换地图:点击带黑十字的绿色按钮放大地图;点击带横线的绿色按钮缩小地图;或者点击绿色箭头查看邻近地区的地图。


METAR-TAF: